Terminal Aerodrome Forecast
Issued by NWS Pittsburgh, PA

Current Version | Previous Version | Text Only | Print | Product List | Glossary Off
Versions: 1 2 3 4 5 6 7 8 9 10 11 12 13 14 15 16 17 18 19 20 21 22 23 24 25 26 27 28

000
FTUS41 KPBZ 202100 AAB
TAFPIT
TAF AMD
KPIT 202104Z 2021/2124 24008KT P6SM BKN060
      TEMPO 2022/2024 3SM -TSRA BKN025CB
     FM210700 VRB03KT 5SM BR SCT040
     FM211400 24006KT P6SM BKN040
     FM212100 26009KT P6SM VCTS BKN040CB=

USA.gov is the U.S. government's official web portal to all federal, state and local government web resources and services.